sensor_id;sensor_type;location;lat;lon;timestamp;P1;durP1;ratioP1;P2;durP2;ratioP2
71777;SDS011;59609;52.430;4.668;2023-05-07T00:01:37;29.52;;;17.05;;
71777;SDS011;59609;52.430;4.668;2023-05-07T00:04:03;35.25;;;18.17;;
71777;SDS011;59609;52.430;4.668;2023-05-07T00:06:28;36.75;;;19.02;;
71777;SDS011;59609;52.430;4.668;2023-05-07T00:08:55;31.63;;;18.15;;
71777;SDS011;59609;52.430;4.668;2023-05-07T00:11:22;33.50;;;19.75;;
71777;SDS011;59609;52.430;4.668;2023-05-07T00:13:47;35.70;;;19.88;;
71777;SDS011;59609;52.430;4.668;2023-05-07T00:16:13;35.25;;;20.25;;
71777;SDS011;59609;52.430;4.668;2023-05-07T00:18:38;35.47;;;20.00;;
71777;SDS011;59609;52.430;4.668;2023-05-07T00:21:04;39.63;;;21.98;;
71777;SDS011;59609;52.430;4.668;2023-05-07T00:23:29;42.88;;;22.00;;
71777;SDS011;59609;52.430;4.668;2023-05-07T00:25:55;41.72;;;21.67;;
71777;SDS011;59609;52.430;4.668;2023-05-07T00:28:21;42.72;;;21.38;;
71777;SDS011;59609;52.430;4.668;2023-05-07T00:30:46;43.08;;;21.77;;
71777;SDS011;59609;52.430;4.668;2023-05-07T00:33:12;43.55;;;23.15;;
71777;SDS011;59609;52.430;4.668;2023-05-07T00:35:37;42.13;;;22.98;;
71777;SDS011;59609;52.430;4.668;2023-05-07T00:38:03;41.45;;;22.95;;
71777;SDS011;59609;52.430;4.668;2023-05-07T00:40:28;43.55;;;22.50;;
71777;SDS011;59609;52.430;4.668;2023-05-07T00:42:53;38.72;;;22.48;;
71777;SDS011;59609;52.430;4.668;2023-05-07T00:45:23;45.28;;;24.30;;
71777;SDS011;59609;52.430;4.668;2023-05-07T00:47:57;43.72;;;23.40;;
71777;SDS011;59609;52.430;4.668;2023-05-07T00:50:24;42.17;;;22.67;;
71777;SDS011;59609;52.430;4.668;2023-05-07T00:52:51;43.40;;;23.02;;
71777;SDS011;59609;52.430;4.668;2023-05-07T00:55:17;44.30;;;22.40;;
71777;SDS011;59609;52.430;4.668;2023-05-07T00:57:42;46.45;;;22.73;;
71777;SDS011;59609;52.430;4.668;2023-05-07T01:00:09;44.72;;;23.83;;
71777;SDS011;59609;52.430;4.668;2023-05-07T01:02:37;46.45;;;24.15;;
71777;SDS011;59609;52.430;4.668;2023-05-07T01:05:03;45.00;;;22.85;;
71777;SDS011;59609;52.430;4.668;2023-05-07T01:07:32;47.80;;;24.70;;
71777;SDS011;59609;52.430;4.668;2023-05-07T01:09:58;46.78;;;24.10;;
71777;SDS011;59609;52.430;4.668;2023-05-07T01:12:24;58.42;;;26.75;;
71777;SDS011;59609;52.430;4.668;2023-05-07T01:14:50;56.05;;;27.60;;
71777;SDS011;59609;52.430;4.668;2023-05-07T01:17:16;55.83;;;27.33;;
71777;SDS011;59609;52.430;4.668;2023-05-07T01:19:42;57.10;;;27.17;;
71777;SDS011;59609;52.430;4.668;2023-05-07T01:22:09;59.28;;;28.05;;
71777;SDS011;59609;52.430;4.668;2023-05-07T01:24:39;53.97;;;27.75;;
71777;SDS011;59609;52.430;4.668;2023-05-07T01:27:05;55.00;;;26.33;;
71777;SDS011;59609;52.430;4.668;2023-05-07T01:29:30;54.17;;;27.00;;
71777;SDS011;59609;52.430;4.668;2023-05-07T01:31:59;54.50;;;27.98;;
71777;SDS011;59609;52.430;4.668;2023-05-07T01:34:27;58.45;;;28.13;;
71777;SDS011;59609;52.430;4.668;2023-05-07T01:36:55;60.67;;;28.02;;
71777;SDS011;59609;52.430;4.668;2023-05-07T01:39:24;65.85;;;28.45;;
71777;SDS011;59609;52.430;4.668;2023-05-07T01:41:57;61.13;;;28.52;;
71777;SDS011;59609;52.430;4.668;2023-05-07T01:44:26;64.53;;;29.80;;
71777;SDS011;59609;52.430;4.668;2023-05-07T01:46:52;58.97;;;28.15;;
71777;SDS011;59609;52.430;4.668;2023-05-07T01:49:19;57.95;;;28.27;;
71777;SDS011;59609;52.430;4.668;2023-05-07T01:51:44;64.28;;;28.67;;
71777;SDS011;59609;52.430;4.668;2023-05-07T01:54:10;64.20;;;29.48;;
71777;SDS011;59609;52.430;4.668;2023-05-07T01:56:35;61.80;;;30.10;;
71777;SDS011;59609;52.430;4.668;2023-05-07T01:59:00;65.93;;;30.30;;
71777;SDS011;59609;52.430;4.668;2023-05-07T02:01:27;59.60;;;28.35;;
71777;SDS011;59609;52.430;4.668;2023-05-07T02:03:52;58.60;;;30.27;;
71777;SDS011;59609;52.430;4.668;2023-05-07T02:06:18;59.40;;;28.80;;
71777;SDS011;59609;52.430;4.668;2023-05-07T02:08:44;61.42;;;29.50;;
71777;SDS011;59609;52.430;4.668;2023-05-07T02:11:10;64.28;;;30.20;;
71777;SDS011;59609;52.430;4.668;2023-05-07T02:13:35;60.83;;;28.67;;
71777;SDS011;59609;52.430;4.668;2023-05-07T02:16:01;56.00;;;28.10;;
71777;SDS011;59609;52.430;4.668;2023-05-07T02:18:27;57.45;;;28.13;;
71777;SDS011;59609;52.430;4.668;2023-05-07T02:20:52;61.45;;;28.55;;
71777;SDS011;59609;52.430;4.668;2023-05-07T02:23:18;58.28;;;27.77;;
71777;SDS011;59609;52.430;4.668;2023-05-07T02:25:43;57.25;;;27.75;;
71777;SDS011;59609;52.430;4.668;2023-05-07T02:28:08;57.33;;;27.10;;
71777;SDS011;59609;52.430;4.668;2023-05-07T02:30:34;57.25;;;28.58;;
71777;SDS011;59609;52.430;4.668;2023-05-07T02:32:59;55.00;;;26.65;;
71777;SDS011;59609;52.430;4.668;2023-05-07T02:35:25;52.83;;;26.58;;
71777;SDS011;59609;52.430;4.668;2023-05-07T02:37:51;50.63;;;24.55;;
71777;SDS011;59609;52.430;4.668;2023-05-07T02:40:16;46.05;;;24.73;;
71777;SDS011;59609;52.430;4.668;2023-05-07T02:42:41;42.70;;;22.50;;
71777;SDS011;59609;52.430;4.668;2023-05-07T02:45:07;47.50;;;23.67;;
71777;SDS011;59609;52.430;4.668;2023-05-07T02:47:33;46.47;;;22.20;;
71777;SDS011;59609;52.430;4.668;2023-05-07T02:49:58;40.88;;;21.80;;
71777;SDS011;59609;52.430;4.668;2023-05-07T02:52:23;42.90;;;21.35;;
71777;SDS011;59609;52.430;4.668;2023-05-07T02:54:49;36.15;;;20.73;;
71777;SDS011;59609;52.430;4.668;2023-05-07T02:57:14;38.38;;;20.02;;
71777;SDS011;59609;52.430;4.668;2023-05-07T02:59:40;39.63;;;19.48;;
71777;SDS011;59609;52.430;4.668;2023-05-07T03:02:06;35.05;;;19.15;;
71777;SDS011;59609;52.430;4.668;2023-05-07T03:04:32;33.17;;;18.73;;
71777;SDS011;59609;52.430;4.668;2023-05-07T03:06:57;30.17;;;17.65;;
71777;SDS011;59609;52.430;4.668;2023-05-07T03:09:22;34.00;;;18.77;;
71777;SDS011;59609;52.430;4.668;2023-05-07T03:11:48;36.15;;;18.27;;
71777;SDS011;59609;52.430;4.668;2023-05-07T03:14:13;32.60;;;17.67;;
71777;SDS011;59609;52.430;4.668;2023-05-07T03:16:39;29.38;;;17.95;;
71777;SDS011;59609;52.430;4.668;2023-05-07T03:19:05;29.27;;;17.65;;
71777;SDS011;59609;52.430;4.668;2023-05-07T03:21:30;27.25;;;17.05;;
71777;SDS011;59609;52.430;4.668;2023-05-07T03:23:58;28.05;;;16.20;;
71777;SDS011;59609;52.430;4.668;2023-05-07T03:26:24;29.83;;;15.93;;
71777;SDS011;59609;52.430;4.668;2023-05-07T03:28:50;28.90;;;15.23;;
71777;SDS011;59609;52.430;4.668;2023-05-07T03:31:15;25.58;;;14.23;;
71777;SDS011;59609;52.430;4.668;2023-05-07T03:33:52;22.38;;;13.63;;
71777;SDS011;59609;52.430;4.668;2023-05-07T03:36:19;24.98;;;14.23;;
71777;SDS011;59609;52.430;4.668;2023-05-07T03:38:45;26.25;;;14.50;;
71777;SDS011;59609;52.430;4.668;2023-05-07T03:41:11;21.95;;;13.50;;
71777;SDS011;59609;52.430;4.668;2023-05-07T03:43:36;20.52;;;12.90;;
71777;SDS011;59609;52.430;4.668;2023-05-07T03:46:02;21.42;;;13.15;;
71777;SDS011;59609;52.430;4.668;2023-05-07T03:48:27;23.02;;;14.02;;
71777;SDS011;59609;52.430;4.668;2023-05-07T03:50:52;19.65;;;12.38;;
71777;SDS011;59609;52.430;4.668;2023-05-07T03:53:18;18.77;;;12.90;;
71777;SDS011;59609;52.430;4.668;2023-05-07T03:55:43;19.73;;;12.23;;
71777;SDS011;59609;52.430;4.668;2023-05-07T03:58:08;17.83;;;11.80;;
71777;SDS011;59609;52.430;4.668;2023-05-07T04:00:35;18.80;;;11.40;;
71777;SDS011;59609;52.430;4.668;2023-05-07T04:03:03;18.83;;;11.73;;
71777;SDS011;59609;52.430;4.668;2023-05-07T04:05:29;16.73;;;10.70;;
71777;SDS011;59609;52.430;4.668;2023-05-07T04:07:55;17.70;;;10.93;;
71777;SDS011;59609;52.430;4.668;2023-05-07T04:10:21;17.13;;;11.32;;
71777;SDS011;59609;52.430;4.668;2023-05-07T04:12:46;18.58;;;11.30;;
71777;SDS011;59609;52.430;4.668;2023-05-07T04:15:11;16.90;;;10.23;;
71777;SDS011;59609;52.430;4.668;2023-05-07T04:17:37;17.20;;;10.65;;
71777;SDS011;59609;52.430;4.668;2023-05-07T04:20:02;15.98;;;10.38;;
71777;SDS011;59609;52.430;4.668;2023-05-07T04:22:28;17.00;;;11.13;;
71777;SDS011;59609;52.430;4.668;2023-05-07T04:24:53;14.52;;;9.52;;
71777;SDS011;59609;52.430;4.668;2023-05-07T04:27:19;16.90;;;10.50;;
71777;SDS011;59609;52.430;4.668;2023-05-07T04:29:45;15.65;;;9.38;;
71777;SDS011;59609;52.430;4.668;2023-05-07T04:32:12;14.23;;;9.15;;
71777;SDS011;59609;52.430;4.668;2023-05-07T04:34:38;15.25;;;9.68;;
71777;SDS011;59609;52.430;4.668;2023-05-07T04:37:03;15.60;;;8.70;;
71777;SDS011;59609;52.430;4.668;2023-05-07T04:39:28;11.38;;;8.27;;
71777;SDS011;59609;52.430;4.668;2023-05-07T04:41:54;12.43;;;8.57;;
71777;SDS011;59609;52.430;4.668;2023-05-07T04:44:19;12.90;;;8.32;;
71777;SDS011;59609;52.430;4.668;2023-05-07T04:46:45;13.82;;;8.95;;
71777;SDS011;59609;52.430;4.668;2023-05-07T04:49:10;10.88;;;7.88;;
71777;SDS011;59609;52.430;4.668;2023-05-07T04:51:36;13.77;;;8.30;;
71777;SDS011;59609;52.430;4.668;2023-05-07T04:54:03;15.45;;;8.30;;
71777;SDS011;59609;52.430;4.668;2023-05-07T04:56:28;13.20;;;7.78;;
71777;SDS011;59609;52.430;4.668;2023-05-07T04:58:55;12.55;;;8.60;;
71777;SDS011;59609;52.430;4.668;2023-05-07T05:01:20;11.60;;;8.52;;
71777;SDS011;59609;52.430;4.668;2023-05-07T05:03:46;14.88;;;8.23;;
71777;SDS011;59609;52.430;4.668;2023-05-07T05:06:11;15.55;;;8.65;;
71777;SDS011;59609;52.430;4.668;2023-05-07T05:08:36;13.30;;;8.95;;
71777;SDS011;59609;52.430;4.668;2023-05-07T05:11:02;15.43;;;9.35;;
71777;SDS011;59609;52.430;4.668;2023-05-07T05:13:27;13.68;;;8.93;;
71777;SDS011;59609;52.430;4.668;2023-05-07T05:15:53;11.70;;;8.43;;
71777;SDS011;59609;52.430;4.668;2023-05-07T05:18:21;12.35;;;9.07;;
71777;SDS011;59609;52.430;4.668;2023-05-07T05:20:46;12.60;;;9.40;;
71777;SDS011;59609;52.430;4.668;2023-05-07T05:23:12;14.93;;;8.80;;
71777;SDS011;59609;52.430;4.668;2023-05-07T05:25:37;16.55;;;9.27;;
71777;SDS011;59609;52.430;4.668;2023-05-07T05:28:04;14.38;;;8.82;;
71777;SDS011;59609;52.430;4.668;2023-05-07T05:30:29;13.57;;;9.38;;
71777;SDS011;59609;52.430;4.668;2023-05-07T05:32:55;12.32;;;8.68;;
71777;SDS011;59609;52.430;4.668;2023-05-07T05:35:20;13.57;;;9.18;;
71777;SDS011;59609;52.430;4.668;2023-05-07T05:37:45;10.88;;;8.10;;
71777;SDS011;59609;52.430;4.668;2023-05-07T05:40:11;11.30;;;8.55;;
71777;SDS011;59609;52.430;4.668;2023-05-07T05:42:37;12.18;;;7.68;;
71777;SDS011;59609;52.430;4.668;2023-05-07T05:45:02;10.90;;;8.48;;
71777;SDS011;59609;52.430;4.668;2023-05-07T05:47:28;11.20;;;7.72;;
71777;SDS011;59609;52.430;4.668;2023-05-07T05:49:54;10.82;;;7.82;;
71777;SDS011;59609;52.430;4.668;2023-05-07T05:52:20;10.38;;;7.72;;
71777;SDS011;59609;52.430;4.668;2023-05-07T05:54:48;12.77;;;7.85;;
71777;SDS011;59609;52.430;4.668;2023-05-07T05:57:13;13.20;;;8.40;;
71777;SDS011;59609;52.430;4.668;2023-05-07T05:59:38;11.35;;;7.60;;
71777;SDS011;59609;52.430;4.668;2023-05-07T06:02:04;12.27;;;8.05;;
71777;SDS011;59609;52.430;4.668;2023-05-07T06:04:30;11.13;;;8.38;;
71777;SDS011;59609;52.430;4.668;2023-05-07T06:06:55;12.90;;;8.05;;
71777;SDS011;59609;52.430;4.668;2023-05-07T06:09:21;13.15;;;8.85;;
71777;SDS011;59609;52.430;4.668;2023-05-07T06:11:47;10.98;;;8.95;;
71777;SDS011;59609;52.430;4.668;2023-05-07T06:14:12;12.05;;;9.23;;
71777;SDS011;59609;52.430;4.668;2023-05-07T06:16:37;11.63;;;8.95;;
71777;SDS011;59609;52.430;4.668;2023-05-07T06:19:03;11.63;;;7.70;;
71777;SDS011;59609;52.430;4.668;2023-05-07T06:21:28;11.57;;;8.50;;
71777;SDS011;59609;52.430;4.668;2023-05-07T06:23:53;10.93;;;7.97;;
71777;SDS011;59609;52.430;4.668;2023-05-07T06:26:19;13.38;;;8.48;;
71777;SDS011;59609;52.430;4.668;2023-05-07T06:28:45;11.90;;;8.48;;
71777;SDS011;59609;52.430;4.668;2023-05-07T06:31:20;11.50;;;8.95;;
71777;SDS011;59609;52.430;4.668;2023-05-07T06:33:45;15.18;;;9.82;;
71777;SDS011;59609;52.430;4.668;2023-05-07T06:36:11;16.20;;;11.00;;
71777;SDS011;59609;52.430;4.668;2023-05-07T06:38:37;16.48;;;11.20;;
71777;SDS011;59609;52.430;4.668;2023-05-07T06:41:02;16.52;;;11.27;;
71777;SDS011;59609;52.430;4.668;2023-05-07T06:43:27;18.13;;;11.70;;
71777;SDS011;59609;52.430;4.668;2023-05-07T06:45:53;19.88;;;12.20;;
71777;SDS011;59609;52.430;4.668;2023-05-07T06:48:18;15.60;;;11.18;;
71777;SDS011;59609;52.430;4.668;2023-05-07T06:50:43;18.10;;;11.50;;
71777;SDS011;59609;52.430;4.668;2023-05-07T06:53:09;16.55;;;11.10;;
71777;SDS011;59609;52.430;4.668;2023-05-07T06:55:34;14.52;;;10.82;;
71777;SDS011;59609;52.430;4.668;2023-05-07T06:58:00;15.18;;;11.07;;
71777;SDS011;59609;52.430;4.668;2023-05-07T07:00:29;17.05;;;12.02;;
71777;SDS011;59609;52.430;4.668;2023-05-07T07:02:54;14.68;;;10.98;;
71777;SDS011;59609;52.430;4.668;2023-05-07T07:05:20;16.48;;;11.15;;
71777;SDS011;59609;52.430;4.668;2023-05-07T07:07:45;14.77;;;10.85;;
71777;SDS011;59609;52.430;4.668;2023-05-07T07:10:17;15.68;;;11.45;;
71777;SDS011;59609;52.430;4.668;2023-05-07T07:12:44;15.07;;;10.88;;
71777;SDS011;59609;52.430;4.668;2023-05-07T07:15:09;15.10;;;11.02;;
71777;SDS011;59609;52.430;4.668;2023-05-07T07:17:35;16.05;;;10.60;;
71777;SDS011;59609;52.430;4.668;2023-05-07T07:20:00;14.65;;;10.32;;
71777;SDS011;59609;52.430;4.668;2023-05-07T07:22:26;13.95;;;10.75;;
71777;SDS011;59609;52.430;4.668;2023-05-07T07:24:51;16.30;;;10.48;;
71777;SDS011;59609;52.430;4.668;2023-05-07T07:27:16;15.48;;;10.13;;
71777;SDS011;59609;52.430;4.668;2023-05-07T07:29:42;15.35;;;9.77;;
71777;SDS011;59609;52.430;4.668;2023-05-07T07:32:07;16.48;;;9.88;;
71777;SDS011;59609;52.430;4.668;2023-05-07T07:34:33;16.27;;;10.27;;
71777;SDS011;59609;52.430;4.668;2023-05-07T07:36:58;15.18;;;10.18;;
71777;SDS011;59609;52.430;4.668;2023-05-07T07:39:23;15.88;;;9.65;;
71777;SDS011;59609;52.430;4.668;2023-05-07T07:41:49;16.98;;;10.55;;
71777;SDS011;59609;52.430;4.668;2023-05-07T07:44:14;13.55;;;9.07;;
71777;SDS011;59609;52.430;4.668;2023-05-07T07:46:40;12.73;;;9.48;;
71777;SDS011;59609;52.430;4.668;2023-05-07T07:49:05;15.05;;;9.48;;
71777;SDS011;59609;52.430;4.668;2023-05-07T07:51:30;16.55;;;9.07;;
71777;SDS011;59609;52.430;4.668;2023-05-07T07:53:56;13.85;;;8.68;;
71777;SDS011;59609;52.430;4.668;2023-05-07T07:56:22;11.30;;;8.85;;
71777;SDS011;59609;52.430;4.668;2023-05-07T07:58:48;11.82;;;8.25;;
71777;SDS011;59609;52.430;4.668;2023-05-07T08:01:13;12.55;;;8.52;;
71777;SDS011;59609;52.430;4.668;2023-05-07T08:03:39;13.23;;;8.95;;
71777;SDS011;59609;52.430;4.668;2023-05-07T08:06:04;10.27;;;7.47;;
71777;SDS011;59609;52.430;4.668;2023-05-07T08:08:30;10.02;;;8.07;;
71777;SDS011;59609;52.430;4.668;2023-05-07T08:10:55;9.55;;;7.43;;
71777;SDS011;59609;52.430;4.668;2023-05-07T08:13:20;9.82;;;7.97;;
71777;SDS011;59609;52.430;4.668;2023-05-07T08:15:46;11.75;;;7.85;;
71777;SDS011;59609;52.430;4.668;2023-05-07T08:18:11;8.85;;;7.10;;
71777;SDS011;59609;52.430;4.668;2023-05-07T08:20:36;10.73;;;7.03;;
71777;SDS011;59609;52.430;4.668;2023-05-07T08:23:04;11.30;;;6.93;;
71777;SDS011;59609;52.430;4.668;2023-05-07T08:25:32;10.05;;;6.70;;
71777;SDS011;59609;52.430;4.668;2023-05-07T08:27:58;11.65;;;6.85;;
71777;SDS011;59609;52.430;4.668;2023-05-07T08:30:23;9.30;;;6.82;;
71777;SDS011;59609;52.430;4.668;2023-05-07T08:32:49;9.02;;;6.65;;
71777;SDS011;59609;52.430;4.668;2023-05-07T08:35:14;8.60;;;6.43;;
71777;SDS011;59609;52.430;4.668;2023-05-07T08:37:39;8.68;;;6.47;;
71777;SDS011;59609;52.430;4.668;2023-05-07T08:40:05;11.38;;;7.00;;
71777;SDS011;59609;52.430;4.668;2023-05-07T08:42:31;11.88;;;7.30;;
71777;SDS011;59609;52.430;4.668;2023-05-07T08:45:00;10.70;;;7.63;;
71777;SDS011;59609;52.430;4.668;2023-05-07T08:47:33;10.93;;;7.30;;
71777;SDS011;59609;52.430;4.668;2023-05-07T08:50:04;10.48;;;7.82;;
71777;SDS011;59609;52.430;4.668;2023-05-07T08:52:30;10.75;;;7.53;;
71777;SDS011;59609;52.430;4.668;2023-05-07T08:54:56;11.38;;;7.65;;
71777;SDS011;59609;52.430;4.668;2023-05-07T08:57:22;9.85;;;7.50;;
71777;SDS011;59609;52.430;4.668;2023-05-07T08:59:49;9.90;;;7.07;;
71777;SDS011;59609;52.430;4.668;2023-05-07T09:02:15;10.13;;;6.50;;
71777;SDS011;59609;52.430;4.668;2023-05-07T09:04:41;9.32;;;7.03;;
71777;SDS011;59609;52.430;4.668;2023-05-07T09:07:06;9.02;;;6.22;;
71777;SDS011;59609;52.430;4.668;2023-05-07T09:09:32;8.90;;;6.32;;
71777;SDS011;59609;52.430;4.668;2023-05-07T09:11:58;7.72;;;6.53;;
71777;SDS011;59609;52.430;4.668;2023-05-07T09:14:24;7.93;;;5.20;;
71777;SDS011;59609;52.430;4.668;2023-05-07T09:16:51;6.20;;;5.35;;
71777;SDS011;59609;52.430;4.668;2023-05-07T09:19:21;9.95;;;5.45;;
71777;SDS011;59609;52.430;4.668;2023-05-07T09:22:03;6.38;;;4.70;;
71777;SDS011;59609;52.430;4.668;2023-05-07T09:24:30;6.75;;;4.85;;
71777;SDS011;59609;52.430;4.668;2023-05-07T09:27:00;6.97;;;4.90;;
71777;SDS011;59609;52.430;4.668;2023-05-07T09:29:26;6.90;;;5.05;;
71777;SDS011;59609;52.430;4.668;2023-05-07T09:31:54;7.88;;;5.55;;
71777;SDS011;59609;52.430;4.668;2023-05-07T09:34:20;7.43;;;5.75;;
71777;SDS011;59609;52.430;4.668;2023-05-07T09:36:45;8.95;;;6.43;;
71777;SDS011;59609;52.430;4.668;2023-05-07T09:39:11;8.55;;;6.18;;
71777;SDS011;59609;52.430;4.668;2023-05-07T09:41:44;9.25;;;5.85;;
71777;SDS011;59609;52.430;4.668;2023-05-07T09:44:11;7.20;;;5.85;;
71777;SDS011;59609;52.430;4.668;2023-05-07T09:46:38;8.48;;;6.20;;
71777;SDS011;59609;52.430;4.668;2023-05-07T09:51:43;9.77;;;6.82;;
71777;SDS011;59609;52.430;4.668;2023-05-07T09:56:38;8.65;;;7.47;;
71777;SDS011;59609;52.430;4.668;2023-05-07T09:59:07;7.22;;;5.38;;
71777;SDS011;59609;52.430;4.668;2023-05-07T10:01:35;8.43;;;5.78;;
71777;SDS011;59609;52.430;4.668;2023-05-07T10:04:01;7.88;;;5.80;;
71777;SDS011;59609;52.430;4.668;2023-05-07T10:06:29;5.75;;;5.13;;
71777;SDS011;59609;52.430;4.668;2023-05-07T10:08:55;7.68;;;5.40;;
71777;SDS011;59609;52.430;4.668;2023-05-07T10:11:24;8.05;;;4.65;;
71777;SDS011;59609;52.430;4.668;2023-05-07T10:13:49;4.68;;;3.90;;
71777;SDS011;59609;52.430;4.668;2023-05-07T10:16:17;6.38;;;3.75;;
71777;SDS011;59609;52.430;4.668;2023-05-07T10:18:43;6.97;;;4.22;;
71777;SDS011;59609;52.430;4.668;2023-05-07T10:21:16;6.63;;;3.65;;
71777;SDS011;59609;52.430;4.668;2023-05-07T10:23:44;6.22;;;3.83;;
71777;SDS011;59609;52.430;4.668;2023-05-07T10:26:14;6.03;;;3.53;;
71777;SDS011;59609;52.430;4.668;2023-05-07T10:28:43;6.57;;;4.00;;
71777;SDS011;59609;52.430;4.668;2023-05-07T10:34:36;6.78;;;4.85;;
71777;SDS011;59609;52.430;4.668;2023-05-07T10:37:05;7.30;;;4.43;;
71777;SDS011;59609;52.430;4.668;2023-05-07T10:39:32;8.65;;;5.10;;
71777;SDS011;59609;52.430;4.668;2023-05-07T10:42:06;8.07;;;4.30;;
71777;SDS011;59609;52.430;4.668;2023-05-07T10:44:32;7.85;;;3.90;;
71777;SDS011;59609;52.430;4.668;2023-05-07T10:47:07;5.68;;;3.67;;
71777;SDS011;59609;52.430;4.668;2023-05-07T10:52:16;5.80;;;3.30;;
71777;SDS011;59609;52.430;4.668;2023-05-07T10:54:43;6.50;;;3.42;;
71777;SDS011;59609;52.430;4.668;2023-05-07T11:00:02;5.90;;;3.20;;
71777;SDS011;59609;52.430;4.668;2023-05-07T11:03:10;5.70;;;3.17;;
71777;SDS011;59609;52.430;4.668;2023-05-07T11:05:29;6.35;;;3.60;;
71777;SDS011;59609;52.430;4.668;2023-05-07T11:10:20;7.00;;;3.90;;
71777;SDS011;59609;52.430;4.668;2023-05-07T11:12:50;6.68;;;4.20;;
71777;SDS011;59609;52.430;4.668;2023-05-07T11:15:33;6.85;;;3.80;;
71777;SDS011;59609;52.430;4.668;2023-05-07T11:18:03;7.03;;;4.25;;
71777;SDS011;59609;52.430;4.668;2023-05-07T11:26:08;5.55;;;3.80;;
71777;SDS011;59609;52.430;4.668;2023-05-07T11:28:38;5.68;;;3.95;;
71777;SDS011;59609;52.430;4.668;2023-05-07T11:31:05;7.22;;;4.78;;
71777;SDS011;59609;52.430;4.668;2023-05-07T11:33:31;7.03;;;4.78;;
71777;SDS011;59609;52.430;4.668;2023-05-07T11:35:57;6.55;;;4.30;;
71777;SDS011;59609;52.430;4.668;2023-05-07T11:38:23;8.18;;;4.43;;
71777;SDS011;59609;52.430;4.668;2023-05-07T11:40:53;6.30;;;4.57;;
71777;SDS011;59609;52.430;4.668;2023-05-07T11:43:20;5.25;;;4.50;;
71777;SDS011;59609;52.430;4.668;2023-05-07T11:45:46;7.90;;;4.53;;
71777;SDS011;59609;52.430;4.668;2023-05-07T11:48:12;10.88;;;5.22;;
71777;SDS011;59609;52.430;4.668;2023-05-07T11:50:54;7.75;;;5.38;;
71777;SDS011;59609;52.430;4.668;2023-05-07T11:53:37;6.72;;;5.20;;
71777;SDS011;59609;52.430;4.668;2023-05-07T11:58:34;7.03;;;5.55;;
71777;SDS011;59609;52.430;4.668;2023-05-07T12:00:59;5.80;;;4.90;;
71777;SDS011;59609;52.430;4.668;2023-05-07T12:03:25;7.85;;;4.97;;
71777;SDS011;59609;52.430;4.668;2023-05-07T12:05:50;8.63;;;5.50;;
71777;SDS011;59609;52.430;4.668;2023-05-07T12:08:16;8.30;;;5.20;;
71777;SDS011;59609;52.430;4.668;2023-05-07T12:10:42;9.20;;;5.97;;
71777;SDS011;59609;52.430;4.668;2023-05-07T12:13:15;8.40;;;6.30;;
71777;SDS011;59609;52.430;4.668;2023-05-07T12:15:45;7.85;;;6.13;;
71777;SDS011;59609;52.430;4.668;2023-05-07T12:18:13;10.70;;;6.22;;
71777;SDS011;59609;52.430;4.668;2023-05-07T12:20:39;13.75;;;8.00;;
71777;SDS011;59609;52.430;4.668;2023-05-07T12:23:05;9.48;;;6.90;;
71777;SDS011;59609;52.430;4.668;2023-05-07T12:25:37;13.65;;;7.25;;
71777;SDS011;59609;52.430;4.668;2023-05-07T12:28:12;13.45;;;7.72;;
71777;SDS011;59609;52.430;4.668;2023-05-07T12:30:42;13.20;;;7.63;;
71777;SDS011;59609;52.430;4.668;2023-05-07T12:33:08;10.05;;;7.40;;
71777;SDS011;59609;52.430;4.668;2023-05-07T12:35:38;14.82;;;8.25;;
71777;SDS011;59609;52.430;4.668;2023-05-07T12:38:22;9.57;;;6.82;;
71777;SDS011;59609;52.430;4.668;2023-05-07T12:40:48;12.27;;;6.32;;
71777;SDS011;59609;52.430;4.668;2023-05-07T12:43:26;10.95;;;7.55;;
71777;SDS011;59609;52.430;4.668;2023-05-07T12:45:54;11.18;;;7.68;;
71777;SDS011;59609;52.430;4.668;2023-05-07T12:48:21;8.13;;;5.65;;
71777;SDS011;59609;52.430;4.668;2023-05-07T12:50:51;9.07;;;5.18;;
71777;SDS011;59609;52.430;4.668;2023-05-07T12:53:17;10.13;;;6.85;;
71777;SDS011;59609;52.430;4.668;2023-05-07T12:55:46;11.23;;;6.97;;
71777;SDS011;59609;52.430;4.668;2023-05-07T12:58:14;11.95;;;6.85;;
71777;SDS011;59609;52.430;4.668;2023-05-07T13:01:03;12.07;;;7.47;;
71777;SDS011;59609;52.430;4.668;2023-05-07T13:03:30;11.07;;;6.28;;
71777;SDS011;59609;52.430;4.668;2023-05-07T13:06:16;10.63;;;6.68;;
71777;SDS011;59609;52.430;4.668;2023-05-07T13:08:41;13.63;;;7.45;;
71777;SDS011;59609;52.430;4.668;2023-05-07T13:11:10;12.68;;;7.80;;
71777;SDS011;59609;52.430;4.668;2023-05-07T13:13:37;13.68;;;8.27;;
71777;SDS011;59609;52.430;4.668;2023-05-07T13:16:03;15.50;;;9.60;;
71777;SDS011;59609;52.430;4.668;2023-05-07T13:18:30;17.05;;;9.82;;
71777;SDS011;59609;52.430;4.668;2023-05-07T13:20:57;16.92;;;10.63;;
71777;SDS011;59609;52.430;4.668;2023-05-07T13:23:22;20.65;;;13.43;;
71777;SDS011;59609;52.430;4.668;2023-05-07T13:25:48;26.80;;;15.43;;
71777;SDS011;59609;52.430;4.668;2023-05-07T13:28:14;23.73;;;14.98;;
71777;SDS011;59609;52.430;4.668;2023-05-07T13:30:40;23.00;;;15.00;;
71777;SDS011;59609;52.430;4.668;2023-05-07T13:33:08;23.88;;;16.17;;
71777;SDS011;59609;52.430;4.668;2023-05-07T13:35:34;29.48;;;16.50;;
71777;SDS011;59609;52.430;4.668;2023-05-07T13:38:00;26.73;;;16.05;;
71777;SDS011;59609;52.430;4.668;2023-05-07T13:40:27;28.55;;;17.65;;
71777;SDS011;59609;52.430;4.668;2023-05-07T13:42:53;26.13;;;16.77;;
71777;SDS011;59609;52.430;4.668;2023-05-07T13:45:19;27.90;;;17.15;;
71777;SDS011;59609;52.430;4.668;2023-05-07T13:47:45;26.65;;;16.90;;
71777;SDS011;59609;52.430;4.668;2023-05-07T13:50:11;26.73;;;15.98;;
71777;SDS011;59609;52.430;4.668;2023-05-07T13:52:39;24.83;;;16.60;;
71777;SDS011;59609;52.430;4.668;2023-05-07T13:55:06;23.92;;;16.75;;
71777;SDS011;59609;52.430;4.668;2023-05-07T13:57:32;24.33;;;17.95;;
71777;SDS011;59609;52.430;4.668;2023-05-07T13:59:57;20.55;;;15.50;;
71777;SDS011;59609;52.430;4.668;2023-05-07T14:02:23;21.85;;;15.68;;
71777;SDS011;59609;52.430;4.668;2023-05-07T14:04:48;19.92;;;15.27;;
71777;SDS011;59609;52.430;4.668;2023-05-07T14:07:13;21.33;;;14.43;;
71777;SDS011;59609;52.430;4.668;2023-05-07T14:09:39;18.23;;;12.32;;
71777;SDS011;59609;52.430;4.668;2023-05-07T14:12:05;17.90;;;12.77;;
71777;SDS011;59609;52.430;4.668;2023-05-07T14:14:30;15.77;;;12.25;;
71777;SDS011;59609;52.430;4.668;2023-05-07T14:16:56;17.17;;;12.65;;
71777;SDS011;59609;52.430;4.668;2023-05-07T14:19:22;15.90;;;13.07;;
71777;SDS011;59609;52.430;4.668;2023-05-07T14:21:47;18.75;;;13.73;;
71777;SDS011;59609;52.430;4.668;2023-05-07T14:24:13;15.93;;;13.38;;
71777;SDS011;59609;52.430;4.668;2023-05-07T14:26:38;18.02;;;14.68;;
71777;SDS011;59609;52.430;4.668;2023-05-07T14:29:04;16.95;;;13.45;;
71777;SDS011;59609;52.430;4.668;2023-05-07T14:31:29;19.70;;;14.73;;
71777;SDS011;59609;52.430;4.668;2023-05-07T14:33:55;16.98;;;13.98;;
71777;SDS011;59609;52.430;4.668;2023-05-07T14:36:22;14.93;;;13.10;;
71777;SDS011;59609;52.430;4.668;2023-05-07T14:41:16;17.50;;;13.05;;
71777;SDS011;59609;52.430;4.668;2023-05-07T14:43:41;19.65;;;12.80;;
71777;SDS011;59609;52.430;4.668;2023-05-07T14:46:07;20.42;;;13.63;;
71777;SDS011;59609;52.430;4.668;2023-05-07T14:48:32;14.40;;;11.65;;
71777;SDS011;59609;52.430;4.668;2023-05-07T14:50:57;17.40;;;11.23;;
71777;SDS011;59609;52.430;4.668;2023-05-07T14:53:23;14.75;;;11.18;;
71777;SDS011;59609;52.430;4.668;2023-05-07T14:55:48;13.32;;;10.13;;